Terminal Aerodrome Forecast
Issued by NWS

Home | Current Version | Previous Version | Text Only | Print | Product List | Glossary On
Versions: 1 2 3 4 5 6 7 8 9 10 11 12 13 14 15 16 17 18 19 20 21 22 23 24
000
FTUS45 KLKN 191124
TAFWMC
TAF
KWMC 191124Z 1912/2012 16012KT P6SM OVC070
     FM191400 17009KT P6SM VCSH SCT030 OVC050
     FM191600 18006KT P6SM -SHRASN OVC025
     FM200300 VRB05KT P6SM VCSH SCT025 BKN050=

USA.gov is the U.S. government's official web portal to all federal, state and local government web resources and services.